createdAt,value
2022-08-17T04:04:56.923Z,18.93
2022-08-17T04:09:09.399Z,18.76
2022-08-17T04:13:24.882Z,18.68
2022-08-17T04:17:37.179Z,18.73
2022-08-17T04:21:48.703Z,18.85
2022-08-17T04:26:00.543Z,18.90
2022-08-17T04:30:12.528Z,18.98
2022-08-17T04:34:25.068Z,19.04
2022-08-17T04:38:39.367Z,19.03
2022-08-17T04:43:05.657Z,18.98
2022-08-17T04:47:17.293Z,18.87
2022-08-17T04:51:35.453Z,18.88
2022-08-17T04:55:47.962Z,18.85
2022-08-17T04:59:59.524Z,18.95
2022-08-17T05:04:32.894Z,19.01
2022-08-17T05:08:46.326Z,19.07
2022-08-17T05:13:22.941Z,19.11
2022-08-17T05:17:34.469Z,19.11
2022-08-17T05:21:45.980Z,19.13
2022-08-17T05:25:58.203Z,19.22
2022-08-17T05:30:10.388Z,19.26
2022-08-17T05:34:22.784Z,19.28
2022-08-17T05:38:34.643Z,19.33
2022-08-17T05:42:47.234Z,19.39
2022-08-17T05:46:59.834Z,19.66
2022-08-17T05:51:27.431Z,19.67
2022-08-17T05:55:50.643Z,19.69
2022-08-17T06:00:15.743Z,19.60
2022-08-17T06:05:02.152Z,19.52
2022-08-17T06:09:13.791Z,19.56
2022-08-17T06:13:42.493Z,19.39
2022-08-17T06:17:59.341Z,19.54
2022-08-17T06:22:15.184Z,19.64
2022-08-17T06:26:39.619Z,19.53
2022-08-17T06:31:00.823Z,19.65
2022-08-17T06:35:17.244Z,19.80
2022-08-17T06:39:59.243Z,19.95
2022-08-17T06:44:50.093Z,20.04
2022-08-17T06:49:08.195Z,20.09
2022-08-17T06:53:30.044Z,20.07
2022-08-17T06:57:46.204Z,20.24
2022-08-17T07:02:05.389Z,20.34
2022-08-17T07:06:42.564Z,20.54
2022-08-17T07:10:58.573Z,20.62
2022-08-17T07:15:20.737Z,20.73
2022-08-17T07:19:33.593Z,20.88
2022-08-17T07:24:11.003Z,21.01
2022-08-17T07:28:45.425Z,21.03
2022-08-17T07:33:00.960Z,21.02
2022-08-17T07:37:13.850Z,21.05
2022-08-17T07:41:27.098Z,20.99
2022-08-17T07:46:41.650Z,21.04
2022-08-17T07:50:55.016Z,21.08
2022-08-17T07:55:30.262Z,21.15
2022-08-17T08:00:03.300Z,21.29
2022-08-17T08:05:02.393Z,21.38
2022-08-17T08:09:30.701Z,21.30
2022-08-17T08:13:45.393Z,21.38
2022-08-17T08:18:00.683Z,21.43
2022-08-17T08:22:21.517Z,21.46
2022-08-17T08:26:58.031Z,21.90
2022-08-17T08:31:24.401Z,22.61
2022-08-17T08:35:58.565Z,23.06
2022-08-17T08:40:38.742Z,23.41
2022-08-17T08:49:16.996Z,23.95
2022-08-17T08:53:37.740Z,24.02
2022-08-17T08:58:00.908Z,23.93
2022-08-17T09:02:38.436Z,23.99
2022-08-17T09:07:02.159Z,24.37
2022-08-17T09:11:17.852Z,24.66
2022-08-17T09:15:38.066Z,24.93
2022-08-17T09:19:57.657Z,25.08
2022-08-17T09:24:16.211Z,25.33
2022-08-17T09:28:44.177Z,25.55
2022-08-17T09:33:06.223Z,25.74
2022-08-17T09:37:30.877Z,25.87
2022-08-17T09:42:14.522Z,25.88
2022-08-17T09:46:41.776Z,25.98
2022-08-17T09:51:07.046Z,26.04
2022-08-17T09:55:19.153Z,26.05
2022-08-17T09:59:50.187Z,26.23
2022-08-17T10:04:20.749Z,26.31
2022-08-17T10:08:45.792Z,26.70
2022-08-17T10:13:16.030Z,27.16
2022-08-17T10:17:55.475Z,27.10
2022-08-17T10:22:59.511Z,27.05
2022-08-17T10:27:14.773Z,26.76
2022-08-17T10:31:37.589Z,26.76
2022-08-17T10:35:57.288Z,26.63
2022-08-17T10:40:34.949Z,26.56
2022-08-17T10:45:02.028Z,26.67
2022-08-17T10:49:16.567Z,26.78
2022-08-17T10:53:40.700Z,26.77
2022-08-17T10:58:12.464Z,26.83
2022-08-17T11:02:28.458Z,27.27
2022-08-17T11:06:52.144Z,27.55
2022-08-17T11:11:27.025Z,27.85
2022-08-17T11:15:55.689Z,28.19
2022-08-17T11:20:31.057Z,28.53
2022-08-17T11:24:51.455Z,28.66
2022-08-17T11:29:09.619Z,28.53
2022-08-17T11:33:30.417Z,28.46
2022-08-17T11:38:02.979Z,28.34
2022-08-17T11:42:26.713Z,28.52
2022-08-17T11:47:38.369Z,28.60
2022-08-17T11:51:59.406Z,28.78
2022-08-17T11:56:33.462Z,28.80
2022-08-17T12:00:44.961Z,29.05
2022-08-17T12:05:14.869Z,29.08
2022-08-17T12:09:32.269Z,29.14
2022-08-17T12:13:47.401Z,29.25
2022-08-17T12:17:59.250Z,29.09
2022-08-17T12:22:25.848Z,29.11
2022-08-17T12:26:37.639Z,29.26
2022-08-17T12:30:51.927Z,29.34
2022-08-17T12:35:05.859Z,29.37
2022-08-17T12:39:21.426Z,29.50
2022-08-17T12:43:33.634Z,29.50
2022-08-17T12:47:45.343Z,29.67
2022-08-17T12:52:02.505Z,29.65
2022-08-17T12:56:14.230Z,29.51
2022-08-17T13:00:47.718Z,29.59
2022-08-17T13:05:00.975Z,29.60
2022-08-17T13:09:36.059Z,29.75
2022-08-17T13:13:55.904Z,29.91
2022-08-17T13:18:30.126Z,29.87
2022-08-17T13:22:43.269Z,29.74
2022-08-17T13:26:59.204Z,29.97
2022-08-17T13:31:52.076Z,29.89
2022-08-17T13:36:08.814Z,29.90
2022-08-17T13:40:35.545Z,29.76
2022-08-17T13:44:47.091Z,29.80
2022-08-17T13:49:02.503Z,29.81
2022-08-17T13:53:31.513Z,29.93
2022-08-17T13:57:47.930Z,30.19
2022-08-17T14:02:00.406Z,30.35
2022-08-17T14:06:12.010Z,30.23
2022-08-17T14:10:36.264Z,30.01
2022-08-17T14:14:49.516Z,29.65
2022-08-17T14:19:01.394Z,29.50
2022-08-17T14:23:14.432Z,29.53
2022-08-17T14:27:27.999Z,29.72
2022-08-17T14:31:39.908Z,29.92
2022-08-17T14:35:53.451Z,29.98
2022-08-17T14:40:14.741Z,29.98
2022-08-17T14:44:26.382Z,30.10
2022-08-17T14:48:40.476Z,30.30
2022-08-17T14:52:52.223Z,30.39
2022-08-17T14:57:24.638Z,30.39
2022-08-17T15:01:35.378Z,30.33
2022-08-17T15:05:47.263Z,30.32
2022-08-17T15:10:01.373Z,30.23
2022-08-17T15:14:13.400Z,29.93
2022-08-17T15:18:25.125Z,29.70
2022-08-17T15:22:36.801Z,29.54
2022-08-17T15:26:48.318Z,29.79
2022-08-17T15:31:00.180Z,29.93
2022-08-17T15:35:13.636Z,30.15
2022-08-17T15:39:25.334Z,30.26
2022-08-17T15:43:36.944Z,30.27
2022-08-17T15:47:48.455Z,30.24
2022-08-17T15:52:00.049Z,30.08
2022-08-17T15:56:13.570Z,29.76
2022-08-17T16:00:26.767Z,29.88
2022-08-17T16:04:40.858Z,29.97
2022-08-17T16:08:57.485Z,29.88
2022-08-17T16:13:17.976Z,30.07
2022-08-17T16:17:40.080Z,30.18
2022-08-17T16:21:52.163Z,30.18
2022-08-17T16:26:03.695Z,30.20
2022-08-17T16:30:17.705Z,30.07
2022-08-17T16:34:29.639Z,30.11
2022-08-17T16:38:41.281Z,30.12
2022-08-17T16:42:53.727Z,30.11
2022-08-17T16:47:08.622Z,29.86
2022-08-17T16:51:20.717Z,29.66
2022-08-17T16:55:35.366Z,29.48
2022-08-17T16:59:50.211Z,29.33
2022-08-17T17:04:05.203Z,29.10
2022-08-17T17:08:31.275Z,28.98
2022-08-17T17:13:01.934Z,28.87
2022-08-17T17:17:35.758Z,28.78
2022-08-17T17:22:03.999Z,28.69
2022-08-17T17:26:35.154Z,28.55
2022-08-17T17:31:13.538Z,28.47
2022-08-17T17:35:34.455Z,28.46
2022-08-17T17:39:49.623Z,28.52
2022-08-17T17:44:15.275Z,28.57
2022-08-17T17:48:30.062Z,28.54
2022-08-17T17:53:04.003Z,28.45
2022-08-17T17:57:20.465Z,28.28
2022-08-17T18:01:48.307Z,28.16
2022-08-17T18:06:05.898Z,27.99
2022-08-17T18:10:30.479Z,27.84
2022-08-17T18:15:05.361Z,27.68
2022-08-17T18:19:20.596Z,27.44
2022-08-17T18:23:33.059Z,27.27
2022-08-17T18:27:50.723Z,27.17
2022-08-17T18:32:26.660Z,27.05
2022-08-17T18:36:39.672Z,26.94
2022-08-17T18:40:59.721Z,26.82
2022-08-17T18:45:12.909Z,26.62
2022-08-17T18:49:28.884Z,26.48
2022-08-17T18:53:41.445Z,26.33
2022-08-17T18:57:56.779Z,26.27
2022-08-17T19:02:23.139Z,26.09
2022-08-17T19:06:43.107Z,25.90
2022-08-17T19:10:59.117Z,25.80
2022-08-17T19:15:13.372Z,25.68
2022-08-17T19:19:59.449Z,25.56
2022-08-17T19:24:19.435Z,25.45
2022-08-17T19:28:44.932Z,25.36
2022-08-17T19:33:01.400Z,25.27
2022-08-17T19:37:37.805Z,25.15
2022-08-17T19:42:12.156Z,25.02
2022-08-17T19:46:40.005Z,24.96
2022-08-17T19:51:11.212Z,24.89
2022-08-17T19:55:44.370Z,24.80
2022-08-17T20:00:07.641Z,24.77
2022-08-17T20:04:31.796Z,24.68
2022-08-17T20:09:03.362Z,24.58
2022-08-17T20:13:33.684Z,24.50
2022-08-17T20:17:47.795Z,24.45
2022-08-17T20:22:11.629Z,24.36
2022-08-17T20:26:38.785Z,24.28
2022-08-17T20:30:51.357Z,24.20
2022-08-17T20:35:19.629Z,24.13
2022-08-17T20:39:34.575Z,24.06
2022-08-17T20:43:52.035Z,23.91
2022-08-17T20:48:36.143Z,23.82
2022-08-17T20:52:52.616Z,23.73
2022-08-17T20:57:09.271Z,23.68
2022-08-17T21:01:39.505Z,23.63
2022-08-17T21:06:16.927Z,23.66
2022-08-17T21:10:35.614Z,23.60
2022-08-17T21:15:06.971Z,23.49
2022-08-17T21:19:44.354Z,23.40
2022-08-17T21:24:33.807Z,23.28
2022-08-17T21:29:01.564Z,23.27
